sensor_id;sensor_type;location;lat;lon;timestamp;temperature;humidity
29687;DHT22;16599;47.078;15.536;2024-03-02T00:01:49;7.30;99.90
29687;DHT22;16599;47.078;15.536;2024-03-02T00:04:15;7.20;99.90
29687;DHT22;16599;47.078;15.536;2024-03-02T00:06:43;7.20;99.90
29687;DHT22;16599;47.078;15.536;2024-03-02T00:09:10;7.10;99.90
29687;DHT22;16599;47.078;15.536;2024-03-02T00:11:40;7.10;99.90
29687;DHT22;16599;47.078;15.536;2024-03-02T00:14:07;7.10;99.90
29687;DHT22;16599;47.078;15.536;2024-03-02T00:16:35;7.10;99.90
29687;DHT22;16599;47.078;15.536;2024-03-02T00:19:02;7.20;99.90
29687;DHT22;16599;47.078;15.536;2024-03-02T00:21:29;7.10;99.90
29687;DHT22;16599;47.078;15.536;2024-03-02T00:23:56;7.20;99.90
29687;DHT22;16599;47.078;15.536;2024-03-02T00:26:23;7.20;99.90
29687;DHT22;16599;47.078;15.536;2024-03-02T00:28:50;7.20;99.90
29687;DHT22;16599;47.078;15.536;2024-03-02T00:31:19;7.20;99.90
29687;DHT22;16599;47.078;15.536;2024-03-02T00:33:47;7.30;99.90
29687;DHT22;16599;47.078;15.536;2024-03-02T00:36:26;7.30;99.90
29687;DHT22;16599;47.078;15.536;2024-03-02T00:38:56;7.30;99.90
29687;DHT22;16599;47.078;15.536;2024-03-02T00:41:30;7.20;99.90
29687;DHT22;16599;47.078;15.536;2024-03-02T00:46:27;7.20;99.90
29687;DHT22;16599;47.078;15.536;2024-03-02T00:51:24;7.20;99.90
29687;DHT22;16599;47.078;15.536;2024-03-02T00:53:51;7.10;99.90
29687;DHT22;16599;47.078;15.536;2024-03-02T00:56:19;7.10;99.90
29687;DHT22;16599;47.078;15.536;2024-03-02T00:58:46;7.10;99.90
29687;DHT22;16599;47.078;15.536;2024-03-02T01:01:12;7.10;99.90
29687;DHT22;16599;47.078;15.536;2024-03-02T01:03:40;7.10;99.90
29687;DHT22;16599;47.078;15.536;2024-03-02T01:06:08;7.10;99.90
29687;DHT22;16599;47.078;15.536;2024-03-02T01:08:35;7.20;99.90
29687;DHT22;16599;47.078;15.536;2024-03-02T01:11:02;7.20;99.90
29687;DHT22;16599;47.078;15.536;2024-03-02T01:13:29;7.10;99.90
29687;DHT22;16599;47.078;15.536;2024-03-02T01:15:56;7.10;99.90
29687;DHT22;16599;47.078;15.536;2024-03-02T01:18:23;7.10;99.90
29687;DHT22;16599;47.078;15.536;2024-03-02T01:20:50;7.10;99.90
29687;DHT22;16599;47.078;15.536;2024-03-02T01:23:23;7.10;99.90
29687;DHT22;16599;47.078;15.536;2024-03-02T01:25:50;7.10;99.90
29687;DHT22;16599;47.078;15.536;2024-03-02T01:28:17;7.00;99.90
29687;DHT22;16599;47.078;15.536;2024-03-02T01:30:44;7.00;99.90
29687;DHT22;16599;47.078;15.536;2024-03-02T01:33:11;6.90;99.90
29687;DHT22;16599;47.078;15.536;2024-03-02T01:35:38;6.90;99.90
29687;DHT22;16599;47.078;15.536;2024-03-02T01:38:05;6.90;99.90
29687;DHT22;16599;47.078;15.536;2024-03-02T01:40:34;6.90;99.90
29687;DHT22;16599;47.078;15.536;2024-03-02T01:43:01;6.90;99.90
29687;DHT22;16599;47.078;15.536;2024-03-02T01:45:29;6.90;99.90
29687;DHT22;16599;47.078;15.536;2024-03-02T01:47:56;6.90;99.90
29687;DHT22;16599;47.078;15.536;2024-03-02T01:50:26;7.00;99.90
29687;DHT22;16599;47.078;15.536;2024-03-02T01:52:53;7.00;99.90
29687;DHT22;16599;47.078;15.536;2024-03-02T01:55:20;7.10;99.90
29687;DHT22;16599;47.078;15.536;2024-03-02T01:57:48;7.10;99.90
29687;DHT22;16599;47.078;15.536;2024-03-02T02:00:15;7.00;99.90
29687;DHT22;16599;47.078;15.536;2024-03-02T02:02:42;7.10;99.90
29687;DHT22;16599;47.078;15.536;2024-03-02T02:05:09;7.00;99.90
29687;DHT22;16599;47.078;15.536;2024-03-02T02:07:36;6.90;99.90
29687;DHT22;16599;47.078;15.536;2024-03-02T02:10:03;6.90;99.90
29687;DHT22;16599;47.078;15.536;2024-03-02T02:12:30;6.90;99.90
29687;DHT22;16599;47.078;15.536;2024-03-02T02:14:57;7.00;99.90
29687;DHT22;16599;47.078;15.536;2024-03-02T02:17:24;7.00;99.90
29687;DHT22;16599;47.078;15.536;2024-03-02T02:19:51;7.00;99.90
29687;DHT22;16599;47.078;15.536;2024-03-02T02:22:18;7.00;99.90
29687;DHT22;16599;47.078;15.536;2024-03-02T02:24:44;7.00;99.90
29687;DHT22;16599;47.078;15.536;2024-03-02T02:27:11;7.00;99.90
29687;DHT22;16599;47.078;15.536;2024-03-02T02:29:41;6.90;99.90
29687;DHT22;16599;47.078;15.536;2024-03-02T02:32:08;6.80;99.90
29687;DHT22;16599;47.078;15.536;2024-03-02T02:34:35;6.80;99.90
29687;DHT22;16599;47.078;15.536;2024-03-02T02:37:02;6.70;99.90
29687;DHT22;16599;47.078;15.536;2024-03-02T02:39:29;6.80;99.90
29687;DHT22;16599;47.078;15.536;2024-03-02T02:41:56;6.90;99.90
29687;DHT22;16599;47.078;15.536;2024-03-02T02:44:23;6.90;99.90
29687;DHT22;16599;47.078;15.536;2024-03-02T02:46:49;6.90;99.90
29687;DHT22;16599;47.078;15.536;2024-03-02T02:49:16;7.00;99.90
29687;DHT22;16599;47.078;15.536;2024-03-02T02:51:43;7.00;99.90
29687;DHT22;16599;47.078;15.536;2024-03-02T02:54:10;7.00;99.90
29687;DHT22;16599;47.078;15.536;2024-03-02T02:56:37;7.00;99.90
29687;DHT22;16599;47.078;15.536;2024-03-02T02:59:04;6.90;99.90
29687;DHT22;16599;47.078;15.536;2024-03-02T03:01:30;6.90;99.90
29687;DHT22;16599;47.078;15.536;2024-03-02T03:03:57;7.00;99.90
29687;DHT22;16599;47.078;15.536;2024-03-02T03:06:24;7.00;99.90
29687;DHT22;16599;47.078;15.536;2024-03-02T03:08:51;6.90;99.90
29687;DHT22;16599;47.078;15.536;2024-03-02T03:11:18;6.90;99.90
29687;DHT22;16599;47.078;15.536;2024-03-02T03:13:44;7.00;99.90
29687;DHT22;16599;47.078;15.536;2024-03-02T03:16:11;7.00;99.90
29687;DHT22;16599;47.078;15.536;2024-03-02T03:18:38;7.00;99.90
29687;DHT22;16599;47.078;15.536;2024-03-02T03:21:05;7.00;99.90
29687;DHT22;16599;47.078;15.536;2024-03-02T03:23:31;7.00;99.90
29687;DHT22;16599;47.078;15.536;2024-03-02T03:25:58;7.00;99.90
29687;DHT22;16599;47.078;15.536;2024-03-02T03:28:25;6.90;99.90
29687;DHT22;16599;47.078;15.536;2024-03-02T03:30:52;6.80;99.90
29687;DHT22;16599;47.078;15.536;2024-03-02T03:33:19;6.80;99.90
29687;DHT22;16599;47.078;15.536;2024-03-02T03:35:45;6.80;99.90
29687;DHT22;16599;47.078;15.536;2024-03-02T03:38:12;6.80;99.90
29687;DHT22;16599;47.078;15.536;2024-03-02T03:40:39;6.90;99.90
29687;DHT22;16599;47.078;15.536;2024-03-02T03:43:06;6.90;99.90
29687;DHT22;16599;47.078;15.536;2024-03-02T03:45:32;6.90;99.90
29687;DHT22;16599;47.078;15.536;2024-03-02T03:47:59;6.90;99.90
29687;DHT22;16599;47.078;15.536;2024-03-02T03:50:26;6.90;99.90
29687;DHT22;16599;47.078;15.536;2024-03-02T03:52:53;6.90;99.90
29687;DHT22;16599;47.078;15.536;2024-03-02T03:55:20;6.80;99.90
29687;DHT22;16599;47.078;15.536;2024-03-02T03:57:46;6.80;99.90
29687;DHT22;16599;47.078;15.536;2024-03-02T04:00:13;6.80;99.90
29687;DHT22;16599;47.078;15.536;2024-03-02T04:02:40;6.80;99.90
29687;DHT22;16599;47.078;15.536;2024-03-02T04:05:07;6.80;99.90
29687;DHT22;16599;47.078;15.536;2024-03-02T04:07:38;6.90;99.90
29687;DHT22;16599;47.078;15.536;2024-03-02T04:10:08;6.90;99.90
29687;DHT22;16599;47.078;15.536;2024-03-02T04:12:38;6.80;99.90
29687;DHT22;16599;47.078;15.536;2024-03-02T04:15:05;6.80;99.90
29687;DHT22;16599;47.078;15.536;2024-03-02T04:17:33;6.70;99.90
29687;DHT22;16599;47.078;15.536;2024-03-02T04:20:00;6.70;99.90
29687;DHT22;16599;47.078;15.536;2024-03-02T04:22:27;6.60;99.90
29687;DHT22;16599;47.078;15.536;2024-03-02T04:24:54;6.60;99.90
29687;DHT22;16599;47.078;15.536;2024-03-02T04:27:21;6.40;99.90
29687;DHT22;16599;47.078;15.536;2024-03-02T04:29:48;6.20;99.90
29687;DHT22;16599;47.078;15.536;2024-03-02T04:32:15;6.20;99.90
29687;DHT22;16599;47.078;15.536;2024-03-02T04:34:42;6.20;99.90
29687;DHT22;16599;47.078;15.536;2024-03-02T04:37:10;6.20;99.90
29687;DHT22;16599;47.078;15.536;2024-03-02T04:39:38;6.30;99.90
29687;DHT22;16599;47.078;15.536;2024-03-02T04:42:05;6.30;99.90
29687;DHT22;16599;47.078;15.536;2024-03-02T04:44:32;6.30;99.90
29687;DHT22;16599;47.078;15.536;2024-03-02T04:46:58;6.40;99.90
29687;DHT22;16599;47.078;15.536;2024-03-02T04:49:25;6.40;99.90
29687;DHT22;16599;47.078;15.536;2024-03-02T04:51:52;6.50;99.90
29687;DHT22;16599;47.078;15.536;2024-03-02T04:54:19;6.50;99.90
29687;DHT22;16599;47.078;15.536;2024-03-02T04:56:46;6.60;99.90
29687;DHT22;16599;47.078;15.536;2024-03-02T04:59:21;6.60;99.90
29687;DHT22;16599;47.078;15.536;2024-03-02T05:01:48;6.50;99.90
29687;DHT22;16599;47.078;15.536;2024-03-02T05:04:15;6.60;99.90
29687;DHT22;16599;47.078;15.536;2024-03-02T05:06:42;6.60;99.90
29687;DHT22;16599;47.078;15.536;2024-03-02T05:09:09;6.60;99.90
29687;DHT22;16599;47.078;15.536;2024-03-02T05:11:35;6.70;99.90
29687;DHT22;16599;47.078;15.536;2024-03-02T05:14:22;6.70;99.90
29687;DHT22;16599;47.078;15.536;2024-03-02T05:16:49;6.70;99.90
29687;DHT22;16599;47.078;15.536;2024-03-02T05:19:16;6.70;99.90
29687;DHT22;16599;47.078;15.536;2024-03-02T05:21:42;6.70;99.90
29687;DHT22;16599;47.078;15.536;2024-03-02T05:24:10;6.70;99.90
29687;DHT22;16599;47.078;15.536;2024-03-02T05:26:37;6.70;99.90
29687;DHT22;16599;47.078;15.536;2024-03-02T05:29:03;6.70;99.90
29687;DHT22;16599;47.078;15.536;2024-03-02T05:31:30;6.80;99.90
29687;DHT22;16599;47.078;15.536;2024-03-02T05:33:57;6.70;99.90
29687;DHT22;16599;47.078;15.536;2024-03-02T05:36:24;6.60;99.90
29687;DHT22;16599;47.078;15.536;2024-03-02T05:38:51;6.70;99.90
29687;DHT22;16599;47.078;15.536;2024-03-02T05:41:18;6.70;99.90
29687;DHT22;16599;47.078;15.536;2024-03-02T05:43:44;6.70;99.90
29687;DHT22;16599;47.078;15.536;2024-03-02T05:46:11;6.70;99.90
29687;DHT22;16599;47.078;15.536;2024-03-02T05:48:38;6.70;99.90
29687;DHT22;16599;47.078;15.536;2024-03-02T05:51:05;6.70;99.90
29687;DHT22;16599;47.078;15.536;2024-03-02T05:53:32;6.60;99.90
29687;DHT22;16599;47.078;15.536;2024-03-02T05:55:58;6.50;99.90
29687;DHT22;16599;47.078;15.536;2024-03-02T05:58:28;6.50;99.90
29687;DHT22;16599;47.078;15.536;2024-03-02T06:01:14;6.60;99.90
29687;DHT22;16599;47.078;15.536;2024-03-02T06:03:40;6.60;99.90
29687;DHT22;16599;47.078;15.536;2024-03-02T06:06:07;6.50;99.90
29687;DHT22;16599;47.078;15.536;2024-03-02T06:08:34;6.50;99.90
29687;DHT22;16599;47.078;15.536;2024-03-02T06:11:01;6.50;99.90
29687;DHT22;16599;47.078;15.536;2024-03-02T06:13:28;6.60;99.90
29687;DHT22;16599;47.078;15.536;2024-03-02T06:15:55;6.70;99.90
29687;DHT22;16599;47.078;15.536;2024-03-02T06:18:22;6.60;99.90
29687;DHT22;16599;47.078;15.536;2024-03-02T06:20:49;6.40;99.90
29687;DHT22;16599;47.078;15.536;2024-03-02T06:23:15;6.60;99.90
29687;DHT22;16599;47.078;15.536;2024-03-02T06:25:42;6.60;99.90
29687;DHT22;16599;47.078;15.536;2024-03-02T06:28:09;6.50;99.90
29687;DHT22;16599;47.078;15.536;2024-03-02T06:30:36;6.60;99.90
29687;DHT22;16599;47.078;15.536;2024-03-02T06:33:03;6.60;99.90
29687;DHT22;16599;47.078;15.536;2024-03-02T06:35:30;6.60;99.90
29687;DHT22;16599;47.078;15.536;2024-03-02T06:37:57;6.60;99.90
29687;DHT22;16599;47.078;15.536;2024-03-02T06:40:23;6.70;99.90
29687;DHT22;16599;47.078;15.536;2024-03-02T06:42:50;6.50;99.90
29687;DHT22;16599;47.078;15.536;2024-03-02T06:45:17;6.40;99.90
29687;DHT22;16599;47.078;15.536;2024-03-02T06:47:44;6.50;99.90
29687;DHT22;16599;47.078;15.536;2024-03-02T06:50:11;6.70;99.90
29687;DHT22;16599;47.078;15.536;2024-03-02T06:52:37;6.70;99.90
29687;DHT22;16599;47.078;15.536;2024-03-02T06:55:05;6.70;99.90
29687;DHT22;16599;47.078;15.536;2024-03-02T06:57:32;6.60;99.90
29687;DHT22;16599;47.078;15.536;2024-03-02T06:59:59;6.60;99.90
29687;DHT22;16599;47.078;15.536;2024-03-02T07:02:26;6.80;99.90
29687;DHT22;16599;47.078;15.536;2024-03-02T07:04:56;6.70;99.90
29687;DHT22;16599;47.078;15.536;2024-03-02T07:07:22;6.90;99.90
29687;DHT22;16599;47.078;15.536;2024-03-02T07:09:49;6.90;99.90
29687;DHT22;16599;47.078;15.536;2024-03-02T07:12:16;6.90;99.90
29687;DHT22;16599;47.078;15.536;2024-03-02T07:14:43;7.00;99.90
29687;DHT22;16599;47.078;15.536;2024-03-02T07:17:38;6.90;99.90
29687;DHT22;16599;47.078;15.536;2024-03-02T07:20:05;6.90;99.90
29687;DHT22;16599;47.078;15.536;2024-03-02T07:22:33;6.90;99.90
29687;DHT22;16599;47.078;15.536;2024-03-02T07:25:00;6.80;99.90
29687;DHT22;16599;47.078;15.536;2024-03-02T07:27:26;6.80;99.90
29687;DHT22;16599;47.078;15.536;2024-03-02T07:29:53;6.90;99.90
29687;DHT22;16599;47.078;15.536;2024-03-02T07:32:20;7.10;99.90
29687;DHT22;16599;47.078;15.536;2024-03-02T07:34:47;7.20;99.90
29687;DHT22;16599;47.078;15.536;2024-03-02T07:37:13;7.20;99.90
29687;DHT22;16599;47.078;15.536;2024-03-02T07:39:40;7.30;99.90
29687;DHT22;16599;47.078;15.536;2024-03-02T07:42:07;7.30;99.90
29687;DHT22;16599;47.078;15.536;2024-03-02T07:44:34;7.30;99.90
29687;DHT22;16599;47.078;15.536;2024-03-02T07:47:00;7.30;99.90
29687;DHT22;16599;47.078;15.536;2024-03-02T07:49:27;7.40;99.90
29687;DHT22;16599;47.078;15.536;2024-03-02T07:51:54;7.40;99.90
29687;DHT22;16599;47.078;15.536;2024-03-02T07:54:22;7.50;99.90
29687;DHT22;16599;47.078;15.536;2024-03-02T07:56:49;7.50;99.90
29687;DHT22;16599;47.078;15.536;2024-03-02T07:59:15;7.50;99.90
29687;DHT22;16599;47.078;15.536;2024-03-02T08:01:42;7.50;99.90
29687;DHT22;16599;47.078;15.536;2024-03-02T08:04:09;7.50;99.90
29687;DHT22;16599;47.078;15.536;2024-03-02T08:06:36;7.50;99.90
29687;DHT22;16599;47.078;15.536;2024-03-02T08:09:02;7.50;99.90
29687;DHT22;16599;47.078;15.536;2024-03-02T08:11:35;7.60;99.90
29687;DHT22;16599;47.078;15.536;2024-03-02T08:14:02;7.70;99.90
29687;DHT22;16599;47.078;15.536;2024-03-02T08:16:33;7.90;99.90
29687;DHT22;16599;47.078;15.536;2024-03-02T08:19:00;8.00;99.90
29687;DHT22;16599;47.078;15.536;2024-03-02T08:21:27;8.20;99.90
29687;DHT22;16599;47.078;15.536;2024-03-02T08:23:57;8.20;99.90
29687;DHT22;16599;47.078;15.536;2024-03-02T08:26:24;8.10;99.90
29687;DHT22;16599;47.078;15.536;2024-03-02T08:28:51;8.10;99.90
29687;DHT22;16599;47.078;15.536;2024-03-02T08:31:18;8.20;99.90
29687;DHT22;16599;47.078;15.536;2024-03-02T08:33:44;8.30;99.90
29687;DHT22;16599;47.078;15.536;2024-03-02T08:36:11;8.30;99.90
29687;DHT22;16599;47.078;15.536;2024-03-02T08:38:38;8.30;99.90
29687;DHT22;16599;47.078;15.536;2024-03-02T08:41:15;8.40;99.90
29687;DHT22;16599;47.078;15.536;2024-03-02T08:44:02;8.40;99.90
29687;DHT22;16599;47.078;15.536;2024-03-02T08:46:29;8.50;99.90
29687;DHT22;16599;47.078;15.536;2024-03-02T08:48:55;8.60;99.90
29687;DHT22;16599;47.078;15.536;2024-03-02T08:51:22;8.70;99.90
29687;DHT22;16599;47.078;15.536;2024-03-02T08:53:49;8.80;99.90
29687;DHT22;16599;47.078;15.536;2024-03-02T08:56:16;8.90;99.90
29687;DHT22;16599;47.078;15.536;2024-03-02T08:58:43;9.00;99.90
29687;DHT22;16599;47.078;15.536;2024-03-02T09:01:10;9.10;99.90
29687;DHT22;16599;47.078;15.536;2024-03-02T09:03:37;9.20;99.90
29687;DHT22;16599;47.078;15.536;2024-03-02T09:06:04;9.30;99.90
29687;DHT22;16599;47.078;15.536;2024-03-02T09:08:31;9.30;99.90
29687;DHT22;16599;47.078;15.536;2024-03-02T09:10:57;9.40;99.90
29687;DHT22;16599;47.078;15.536;2024-03-02T09:13:24;9.30;99.90
29687;DHT22;16599;47.078;15.536;2024-03-02T09:15:51;9.30;99.90
29687;DHT22;16599;47.078;15.536;2024-03-02T09:18:18;9.40;99.90
29687;DHT22;16599;47.078;15.536;2024-03-02T09:20:45;9.40;99.90
29687;DHT22;16599;47.078;15.536;2024-03-02T09:23:12;9.60;99.90
29687;DHT22;16599;47.078;15.536;2024-03-02T09:25:39;9.40;99.90
29687;DHT22;16599;47.078;15.536;2024-03-02T09:28:06;9.50;99.90
29687;DHT22;16599;47.078;15.536;2024-03-02T09:30:33;9.40;99.90
29687;DHT22;16599;47.078;15.536;2024-03-02T09:33:00;9.60;99.90
29687;DHT22;16599;47.078;15.536;2024-03-02T09:35:30;9.70;99.90
29687;DHT22;16599;47.078;15.536;2024-03-02T09:37:56;9.50;99.90
29687;DHT22;16599;47.078;15.536;2024-03-02T09:40:23;9.40;99.90
29687;DHT22;16599;47.078;15.536;2024-03-02T09:42:50;9.50;99.90
29687;DHT22;16599;47.078;15.536;2024-03-02T09:45:23;9.60;99.90
29687;DHT22;16599;47.078;15.536;2024-03-02T09:47:50;9.80;99.90
29687;DHT22;16599;47.078;15.536;2024-03-02T09:50:17;9.70;99.90
29687;DHT22;16599;47.078;15.536;2024-03-02T09:52:44;9.70;99.90
29687;DHT22;16599;47.078;15.536;2024-03-02T09:55:14;9.80;99.90
29687;DHT22;16599;47.078;15.536;2024-03-02T09:57:42;9.90;99.90
29687;DHT22;16599;47.078;15.536;2024-03-02T10:00:09;9.90;99.90
29687;DHT22;16599;47.078;15.536;2024-03-02T10:02:41;9.90;99.90
29687;DHT22;16599;47.078;15.536;2024-03-02T10:05:11;9.80;99.90
29687;DHT22;16599;47.078;15.536;2024-03-02T10:07:38;9.90;99.90
29687;DHT22;16599;47.078;15.536;2024-03-02T10:10:15;10.00;99.90
29687;DHT22;16599;47.078;15.536;2024-03-02T10:12:42;10.00;99.90
29687;DHT22;16599;47.078;15.536;2024-03-02T10:15:09;10.30;99.90
29687;DHT22;16599;47.078;15.536;2024-03-02T10:17:36;10.40;99.90
29687;DHT22;16599;47.078;15.536;2024-03-02T10:20:22;10.50;99.90
29687;DHT22;16599;47.078;15.536;2024-03-02T10:22:50;10.60;99.90
29687;DHT22;16599;47.078;15.536;2024-03-02T10:25:32;10.40;99.90
29687;DHT22;16599;47.078;15.536;2024-03-02T10:28:16;10.20;99.90
29687;DHT22;16599;47.078;15.536;2024-03-02T10:30:47;10.50;99.90
29687;DHT22;16599;47.078;15.536;2024-03-02T10:33:13;10.50;99.90
29687;DHT22;16599;47.078;15.536;2024-03-02T10:35:40;10.60;99.90
29687;DHT22;16599;47.078;15.536;2024-03-02T10:38:07;10.90;99.90
29687;DHT22;16599;47.078;15.536;2024-03-02T10:40:34;11.10;99.90
29687;DHT22;16599;47.078;15.536;2024-03-02T10:43:01;11.00;99.90
29687;DHT22;16599;47.078;15.536;2024-03-02T10:45:31;10.90;99.90
29687;DHT22;16599;47.078;15.536;2024-03-02T10:47:58;10.90;99.90
29687;DHT22;16599;47.078;15.536;2024-03-02T10:50:26;10.40;99.90
29687;DHT22;16599;47.078;15.536;2024-03-02T10:52:53;10.70;99.90
29687;DHT22;16599;47.078;15.536;2024-03-02T10:55:20;10.60;99.90
29687;DHT22;16599;47.078;15.536;2024-03-02T11:00:14;11.00;99.90
29687;DHT22;16599;47.078;15.536;2024-03-02T11:02:52;11.40;99.90
29687;DHT22;16599;47.078;15.536;2024-03-02T11:05:43;11.70;99.90
29687;DHT22;16599;47.078;15.536;2024-03-02T11:08:08;12.20;99.90
29687;DHT22;16599;47.078;15.536;2024-03-02T11:10:41;12.60;99.90
29687;DHT22;16599;47.078;15.536;2024-03-02T11:13:09;12.30;97.60
29687;DHT22;16599;47.078;15.536;2024-03-02T11:15:36;12.10;99.70
29687;DHT22;16599;47.078;15.536;2024-03-02T11:18:05;12.20;98.80
29687;DHT22;16599;47.078;15.536;2024-03-02T11:20:38;12.40;97.60
29687;DHT22;16599;47.078;15.536;2024-03-02T11:23:06;12.10;97.20
29687;DHT22;16599;47.078;15.536;2024-03-02T11:25:34;12.30;99.00
29687;DHT22;16599;47.078;15.536;2024-03-02T11:32:59;12.30;97.80
29687;DHT22;16599;47.078;15.536;2024-03-02T11:35:26;12.50;97.70
29687;DHT22;16599;47.078;15.536;2024-03-02T11:37:54;12.90;96.30
29687;DHT22;16599;47.078;15.536;2024-03-02T11:40:21;13.10;95.60
29687;DHT22;16599;47.078;15.536;2024-03-02T11:42:48;13.30;95.60
29687;DHT22;16599;47.078;15.536;2024-03-02T11:45:24;12.40;94.40
29687;DHT22;16599;47.078;15.536;2024-03-02T11:47:55;12.20;95.60
29687;DHT22;16599;47.078;15.536;2024-03-02T11:50:34;12.70;94.70
29687;DHT22;16599;47.078;15.536;2024-03-02T11:53:07;12.50;92.80
29687;DHT22;16599;47.078;15.536;2024-03-02T11:55:34;12.80;94.70
29687;DHT22;16599;47.078;15.536;2024-03-02T11:58:04;13.30;93.70
29687;DHT22;16599;47.078;15.536;2024-03-02T12:00:31;13.20;92.40
29687;DHT22;16599;47.078;15.536;2024-03-02T12:05:32;13.40;93.30
29687;DHT22;16599;47.078;15.536;2024-03-02T12:08:02;13.20;92.40
29687;DHT22;16599;47.078;15.536;2024-03-02T12:10:31;13.00;93.80
29687;DHT22;16599;47.078;15.536;2024-03-02T12:13:02;13.30;93.00
29687;DHT22;16599;47.078;15.536;2024-03-02T12:15:33;13.70;94.10
29687;DHT22;16599;47.078;15.536;2024-03-02T12:18:00;13.40;93.00
29687;DHT22;16599;47.078;15.536;2024-03-02T12:20:28;13.30;93.20
29687;DHT22;16599;47.078;15.536;2024-03-02T12:22:58;13.60;91.90
29687;DHT22;16599;47.078;15.536;2024-03-02T12:25:26;13.80;92.80
29687;DHT22;16599;47.078;15.536;2024-03-02T12:27:54;13.10;93.00
29687;DHT22;16599;47.078;15.536;2024-03-02T12:30:21;13.40;93.60
29687;DHT22;16599;47.078;15.536;2024-03-02T12:32:48;13.50;92.60
29687;DHT22;16599;47.078;15.536;2024-03-02T12:35:15;12.80;92.50
29687;DHT22;16599;47.078;15.536;2024-03-02T12:37:47;12.80;94.00
29687;DHT22;16599;47.078;15.536;2024-03-02T12:40:14;12.80;93.40
29687;DHT22;16599;47.078;15.536;2024-03-02T12:42:44;12.80;93.20
29687;DHT22;16599;47.078;15.536;2024-03-02T12:45:12;12.70;93.00
29687;DHT22;16599;47.078;15.536;2024-03-02T12:47:39;12.80;93.70
29687;DHT22;16599;47.078;15.536;2024-03-02T12:50:06;13.30;93.30
29687;DHT22;16599;47.078;15.536;2024-03-02T12:52:33;13.50;93.00
29687;DHT22;16599;47.078;15.536;2024-03-02T12:55:01;13.40;92.50
29687;DHT22;16599;47.078;15.536;2024-03-02T12:57:30;13.10;91.90
29687;DHT22;16599;47.078;15.536;2024-03-02T13:00:00;12.60;93.00
29687;DHT22;16599;47.078;15.536;2024-03-02T13:02:28;12.70;93.70
29687;DHT22;16599;47.078;15.536;2024-03-02T13:04:55;12.90;93.00
29687;DHT22;16599;47.078;15.536;2024-03-02T13:07:23;12.90;92.80
29687;DHT22;16599;47.078;15.536;2024-03-02T13:09:49;12.60;94.30
29687;DHT22;16599;47.078;15.536;2024-03-02T13:12:17;12.60;93.90
29687;DHT22;16599;47.078;15.536;2024-03-02T13:14:43;12.80;93.90
29687;DHT22;16599;47.078;15.536;2024-03-02T13:17:11;12.60;93.20
29687;DHT22;16599;47.078;15.536;2024-03-02T13:19:59;12.70;94.30
29687;DHT22;16599;47.078;15.536;2024-03-02T13:22:26;12.80;93.80
29687;DHT22;16599;47.078;15.536;2024-03-02T13:24:53;12.70;93.80
29687;DHT22;16599;47.078;15.536;2024-03-02T13:27:23;12.60;94.70
29687;DHT22;16599;47.078;15.536;2024-03-02T13:29:50;12.30;94.80
29687;DHT22;16599;47.078;15.536;2024-03-02T13:32:17;12.30;95.30
29687;DHT22;16599;47.078;15.536;2024-03-02T13:34:47;12.30;95.30
29687;DHT22;16599;47.078;15.536;2024-03-02T13:37:14;12.40;94.90
29687;DHT22;16599;47.078;15.536;2024-03-02T13:39:40;12.30;94.80
29687;DHT22;16599;47.078;15.536;2024-03-02T13:42:08;12.30;95.40
29687;DHT22;16599;47.078;15.536;2024-03-02T13:44:35;12.50;95.30
29687;DHT22;16599;47.078;15.536;2024-03-02T13:47:03;12.30;94.60
29687;DHT22;16599;47.078;15.536;2024-03-02T13:49:30;12.30;95.10
29687;DHT22;16599;47.078;15.536;2024-03-02T13:52:03;12.30;95.10
29687;DHT22;16599;47.078;15.536;2024-03-02T13:54:37;12.40;95.00
29687;DHT22;16599;47.078;15.536;2024-03-02T13:57:03;12.60;94.80
29687;DHT22;16599;47.078;15.536;2024-03-02T13:59:30;12.50;94.40
29687;DHT22;16599;47.078;15.536;2024-03-02T14:01:57;12.60;95.30
29687;DHT22;16599;47.078;15.536;2024-03-02T14:04:24;12.70;94.80
29687;DHT22;16599;47.078;15.536;2024-03-02T14:06:51;12.70;94.20
29687;DHT22;16599;47.078;15.536;2024-03-02T14:09:19;12.80;94.70
29687;DHT22;16599;47.078;15.536;2024-03-02T14:11:49;12.80;94.40
29687;DHT22;16599;47.078;15.536;2024-03-02T14:14:16;12.70;95.00
29687;DHT22;16599;47.078;15.536;2024-03-02T14:16:43;12.60;94.50
29687;DHT22;16599;47.078;15.536;2024-03-02T14:19:11;12.60;94.80
29687;DHT22;16599;47.078;15.536;2024-03-02T14:21:39;12.50;94.70
29687;DHT22;16599;47.078;15.536;2024-03-02T14:24:06;12.40;94.70
29687;DHT22;16599;47.078;15.536;2024-03-02T14:26:36;12.40;95.20
29687;DHT22;16599;47.078;15.536;2024-03-02T14:29:03;12.40;95.70
29687;DHT22;16599;47.078;15.536;2024-03-02T14:31:30;12.60;95.70
29687;DHT22;16599;47.078;15.536;2024-03-02T14:34:00;12.60;94.90
29687;DHT22;16599;47.078;15.536;2024-03-02T14:36:27;12.50;95.50
29687;DHT22;16599;47.078;15.536;2024-03-02T14:38:55;12.40;96.20
29687;DHT22;16599;47.078;15.536;2024-03-02T14:41:22;12.30;96.60
29687;DHT22;16599;47.078;15.536;2024-03-02T14:43:51;12.10;96.00
29687;DHT22;16599;47.078;15.536;2024-03-02T14:46:18;12.20;96.00
29687;DHT22;16599;47.078;15.536;2024-03-02T14:48:45;12.10;96.30
29687;DHT22;16599;47.078;15.536;2024-03-02T14:51:13;12.10;96.30
29687;DHT22;16599;47.078;15.536;2024-03-02T14:53:40;12.10;95.90
29687;DHT22;16599;47.078;15.536;2024-03-02T14:58:58;11.90;96.10
29687;DHT22;16599;47.078;15.536;2024-03-02T15:01:25;11.80;96.50
29687;DHT22;16599;47.078;15.536;2024-03-02T15:03:52;11.70;97.10
29687;DHT22;16599;47.078;15.536;2024-03-02T15:06:19;11.70;97.20
29687;DHT22;16599;47.078;15.536;2024-03-02T15:08:45;11.60;97.70
29687;DHT22;16599;47.078;15.536;2024-03-02T15:11:15;11.50;97.90
29687;DHT22;16599;47.078;15.536;2024-03-02T15:13:42;11.40;99.10
29687;DHT22;16599;47.078;15.536;2024-03-02T15:16:09;11.40;99.30
29687;DHT22;16599;47.078;15.536;2024-03-02T15:18:36;11.40;99.00
29687;DHT22;16599;47.078;15.536;2024-03-02T15:21:02;11.40;99.30
29687;DHT22;16599;47.078;15.536;2024-03-02T15:23:29;11.40;99.30
29687;DHT22;16599;47.078;15.536;2024-03-02T15:25:56;11.30;99.60
29687;DHT22;16599;47.078;15.536;2024-03-02T15:28:23;11.30;99.70
29687;DHT22;16599;47.078;15.536;2024-03-02T15:30:50;11.20;99.90
29687;DHT22;16599;47.078;15.536;2024-03-02T15:33:20;11.10;99.90
29687;DHT22;16599;47.078;15.536;2024-03-02T15:35:47;11.00;99.90
29687;DHT22;16599;47.078;15.536;2024-03-02T15:38:14;10.80;99.90
29687;DHT22;16599;47.078;15.536;2024-03-02T15:40:57;10.50;99.90
29687;DHT22;16599;47.078;15.536;2024-03-02T15:43:24;10.50;99.90
29687;DHT22;16599;47.078;15.536;2024-03-02T15:45:51;10.00;99.90
29687;DHT22;16599;47.078;15.536;2024-03-02T15:48:18;10.20;99.90